createdAt,value
2023-05-06T10:36:36.341Z,98699.30
2023-05-06T10:41:40.836Z,98684.39
2023-05-06T10:47:03.010Z,98672.50
2023-05-06T10:52:18.284Z,98670.56
2023-05-06T10:57:27.178Z,98678.45
2023-05-06T11:02:36.960Z,98678.60
2023-05-06T11:07:39.714Z,98674.63
2023-05-06T11:12:53.860Z,98673.52
2023-05-06T11:17:59.429Z,98673.49
2023-05-06T11:23:02.425Z,98682.65
2023-05-06T11:28:12.926Z,98685.60
2023-05-06T11:33:19.774Z,98684.27
2023-05-06T11:38:22.534Z,98685.85
2023-05-06T11:43:25.189Z,98683.39
2023-05-06T11:48:28.241Z,98679.52
2023-05-06T11:53:30.414Z,98685.91
2023-05-06T11:58:33.605Z,98694.84
2023-05-06T12:03:44.825Z,98705.80
2023-05-06T12:08:48.387Z,98706.92
2023-05-06T12:13:50.683Z,98709.80
2023-05-06T12:18:54.833Z,98718.36
2023-05-06T12:24:01.861Z,98720.89
2023-05-06T12:29:10.858Z,98731.56
2023-05-06T12:34:18.416Z,98728.34
2023-05-06T12:39:20.756Z,98728.78
2023-05-06T12:44:34.646Z,98735.27
2023-05-06T12:49:58.000Z,98736.84
2023-05-06T12:55:07.791Z,98739.75
2023-05-06T13:00:15.204Z,98734.34
2023-05-06T13:05:20.777Z,98728.55
2023-05-06T13:10:23.152Z,98721.73
2023-05-06T13:15:25.460Z,98726.55
2023-05-06T13:20:30.428Z,98733.11
2023-05-06T13:25:32.771Z,98728.88
2023-05-06T13:30:35.416Z,98731.86
2023-05-06T13:35:37.481Z,98732.95
2023-05-06T13:40:39.716Z,98733.81
2023-05-06T13:45:43.473Z,98730.41
2023-05-06T13:50:47.313Z,98737.80
2023-05-06T13:55:49.209Z,98735.98
2023-05-06T14:00:51.535Z,98737.11
2023-05-06T14:05:53.776Z,98738.91
2023-05-06T14:10:59.675Z,98731.60
2023-05-06T14:16:02.079Z,98733.34
2023-05-06T14:21:04.612Z,98729.11
2023-05-06T14:26:06.632Z,98721.15
2023-05-06T14:31:10.327Z,98720.36
2023-05-06T14:36:18.653Z,98716.21
2023-05-06T14:41:21.427Z,98709.91
2023-05-06T14:46:23.652Z,98707.56
2023-05-06T14:51:26.130Z,98706.95
2023-05-06T14:56:28.593Z,98705.46
2023-05-06T15:01:32.400Z,98714.48
2023-05-06T15:06:34.483Z,98718.52
2023-05-06T15:11:36.544Z,98720.80
2023-05-06T15:16:39.173Z,98727.59
2023-05-06T15:21:41.532Z,98730.90
2023-05-06T15:26:44.359Z,98738.61
2023-05-06T15:31:47.081Z,98739.26
2023-05-06T15:36:53.627Z,98733.11
2023-05-06T15:41:59.243Z,98734.17
2023-05-06T15:47:02.099Z,98734.19
2023-05-06T15:52:04.518Z,98734.30
2023-05-06T15:57:07.588Z,98738.18
2023-05-06T16:07:15.770Z,98734.23
2023-05-06T16:12:18.718Z,98737.50
2023-05-06T16:17:20.919Z,98746.85
2023-05-06T16:22:22.937Z,98747.50
2023-05-06T16:27:27.527Z,98757.29
2023-05-06T16:32:31.760Z,98761.96
2023-05-06T16:37:33.789Z,98768.46
2023-05-06T16:42:36.414Z,98764.66
2023-05-06T16:47:38.878Z,98763.63
2023-05-06T16:52:41.566Z,98762.20
2023-05-06T16:57:43.601Z,98773.89
2023-05-06T17:02:46.249Z,98777.83
2023-05-06T17:07:49.706Z,98774.41
2023-05-06T17:12:52.750Z,98762.80
2023-05-06T17:17:55.147Z,98762.52
2023-05-06T17:22:58.226Z,98763.96
2023-05-06T17:28:00.206Z,98763.67
2023-05-06T17:33:03.764Z,98762.62
2023-05-06T17:38:06.112Z,98765.20
2023-05-06T17:43:11.703Z,98767.63
2023-05-06T17:48:15.256Z,98763.90
2023-05-06T17:53:20.428Z,98766.85
2023-05-06T17:58:22.528Z,98774.92
2023-05-06T18:03:25.389Z,98773.20
2023-05-06T18:08:35.898Z,98787.14
2023-05-06T18:13:39.634Z,98799.02
2023-05-06T18:18:42.851Z,98802.42
2023-05-06T18:23:45.773Z,98811.00
2023-05-06T18:28:54.711Z,98822.73
2023-05-06T18:34:05.051Z,98825.98
2023-05-06T18:39:08.098Z,98830.94
2023-05-06T18:44:14.738Z,98839.36
2023-05-06T18:49:17.410Z,98844.34
2023-05-06T18:54:20.446Z,98847.59
2023-05-06T18:59:22.552Z,98842.98
2023-05-06T19:04:25.358Z,98854.70
2023-05-06T19:09:27.659Z,98861.20
2023-05-06T19:14:30.660Z,98862.71
2023-05-06T19:19:33.071Z,98861.75
2023-05-06T19:24:35.764Z,98860.89
2023-05-06T19:29:40.756Z,98864.67
2023-05-06T19:34:43.178Z,98864.50
2023-05-06T19:39:46.469Z,98869.25
2023-05-06T19:44:49.964Z,98872.53
2023-05-06T19:49:53.618Z,98867.04
2023-05-06T19:54:56.650Z,98866.33
2023-05-06T20:00:00.077Z,98876.63
2023-05-06T20:05:06.701Z,98882.23
2023-05-06T20:10:10.269Z,98885.27
2023-05-06T20:15:13.289Z,98888.12
2023-05-06T20:20:15.750Z,98887.88
2023-05-06T20:25:18.856Z,98889.13
2023-05-06T20:30:21.193Z,98886.04
2023-05-06T20:35:24.331Z,98887.33
2023-05-06T20:40:27.069Z,98892.36
2023-05-06T20:45:32.641Z,98885.26
2023-05-06T20:50:38.623Z,98890.41
2023-05-06T20:55:44.409Z,98899.81
2023-05-06T21:00:50.603Z,98906.03
2023-05-06T21:05:53.243Z,98911.36
2023-05-06T21:10:58.998Z,98913.30
2023-05-06T21:16:05.730Z,98913.27
2023-05-06T21:21:08.123Z,98914.31
2023-05-06T21:26:13.010Z,98921.77
2023-05-06T21:31:19.255Z,98917.20
2023-05-06T21:36:22.115Z,98923.19
2023-05-06T21:41:26.136Z,98925.16
2023-05-06T21:46:32.516Z,98929.08
2023-05-06T21:51:37.456Z,98933.58
2023-05-06T21:56:39.709Z,98934.45
2023-05-06T22:01:41.818Z,98928.39
2023-05-06T22:06:44.934Z,98925.80
2023-05-06T22:11:47.183Z,98928.21
2023-05-06T22:16:50.439Z,98928.39
2023-05-06T22:21:56.207Z,98925.17
2023-05-06T22:26:58.656Z,98928.20
2023-05-06T22:32:01.655Z,98926.36
2023-05-06T22:37:09.644Z,98926.59
2023-05-06T22:42:11.862Z,98926.85
2023-05-06T22:47:14.757Z,98934.25
2023-05-06T22:52:20.629Z,98938.00
2023-05-06T22:57:32.836Z,98938.58
2023-05-06T23:02:35.312Z,98938.55
2023-05-06T23:07:39.616Z,98939.06
2023-05-06T23:12:43.266Z,98943.20
2023-05-06T23:17:45.828Z,98946.63
2023-05-06T23:22:50.496Z,98947.16
2023-05-06T23:27:56.329Z,98947.39
2023-05-06T23:33:04.595Z,98949.73
2023-05-06T23:38:13.262Z,98953.25
2023-05-06T23:43:19.110Z,98953.64
2023-05-06T23:48:22.519Z,98950.80
2023-05-06T23:53:25.790Z,98951.05
2023-05-06T23:58:35.687Z,98948.34
